To NAV CANADA Home Page Login to a new session Search on AWWS site Feedback and Comments Disclaimer Vers la page française équivalente Tips FAQ What's new on the site To the Forecasts and Observations / NOTAM section To "File a Flight Plan" website Publications and other links Update of the User's profile FIC Telephone Numbers My Weather Data Folder Route Weather Data Regional Weather Data Local Weather Data To the Forecasts and Observations / NOTAM section
Request Generated 04/30/2017 at 05:00:21 UTC . Weather information available at that time is displayed.

METAR/TAF

LONDON/ON    

METAR CYXU 300400Z 04009KT 15SM FEW100 OVC240 08/02 A3023 RMK AC2CS6
SLP243=
METAR CYXU 300300Z 02008KT 15SM SCT100 OVC230 07/03 A3024 RMK AC4CI4
SLP247=
METAR CYXU 300200Z 02005KT 15SM FEW060 BKN120 OVC230 07/02 A3023 RMK
SC2AC4CI2 SLP243=

TAF AMD CYXU 300309Z 3003/3024 02008KT P6SM SCT100 OVC230
FM300600 07015G30KT P6SM OVC050
FM300900 09020G30KT P6SM -SHRA OVC030 PROB30 3009/3012 2SM +TSRA
BR BKN008CB
FM301200 09025G35KT 5SM -SHRA BR OVC015
FM301600 09015G25KT P6SM OVC012
RMK NXT FCST BY 300600Z=
Your time UTC time
Weather data provided by Environment Canada and NAV CANADA